Terminal Aerodrome Forecast
Issued by NWS Cleveland, OH

Home | Current Version | Previous Version | Graphics & Text | Print | Product List | Glossary On
Versions: 1 2 3 4 5 6 7 8 9 10 11 12 13 14 15 16 17 18
000
FTUS41 KCLE 211731
TAFERI
TAF
KERI 211731Z 2118/2218 19016G30KT P6SM BKN250
     FM220100 23015G25KT P6SM VCSH BKN050
      TEMPO 2201/2204 4SM -SHRA OVC025
     FM220400 28015G24KT 5SM -SHRA OVC025
      TEMPO 2204/2206 4SM -SHSNRA OVC020
     FM220600 30013G22KT 5SM -SHSN OVC030
     FM221400 32012KT P6SM BKN050
     FM221600 31011KT P6SM BKN045=

USA.gov is the U.S. government's official web portal to all federal, state and local government web resources and services.